sensor_id;sensor_type;location;lat;lon;timestamp;P1;durP1;ratioP1;P2;durP2;ratioP2
4206;SDS011;2117;47.972;7.830;2023-02-28T00:00:21;6.37;;;3.20;;
4206;SDS011;2117;47.972;7.830;2023-02-28T00:02:47;4.03;;;3.10;;
4206;SDS011;2117;47.972;7.830;2023-02-28T00:05:14;4.77;;;2.60;;
4206;SDS011;2117;47.972;7.830;2023-02-28T00:07:41;7.43;;;3.57;;
4206;SDS011;2117;47.972;7.830;2023-02-28T00:10:08;4.50;;;2.80;;
4206;SDS011;2117;47.972;7.830;2023-02-28T00:12:35;4.33;;;3.00;;
4206;SDS011;2117;47.972;7.830;2023-02-28T00:15:02;3.30;;;2.60;;
4206;SDS011;2117;47.972;7.830;2023-02-28T00:17:31;5.33;;;2.93;;
4206;SDS011;2117;47.972;7.830;2023-02-28T00:19:56;5.07;;;3.00;;
4206;SDS011;2117;47.972;7.830;2023-02-28T00:22:26;4.77;;;3.13;;
4206;SDS011;2117;47.972;7.830;2023-02-28T00:24:52;4.83;;;2.40;;
4206;SDS011;2117;47.972;7.830;2023-02-28T00:27:17;6.13;;;2.97;;
4206;SDS011;2117;47.972;7.830;2023-02-28T00:29:43;4.83;;;2.80;;
4206;SDS011;2117;47.972;7.830;2023-02-28T00:32:11;5.00;;;3.30;;
4206;SDS011;2117;47.972;7.830;2023-02-28T00:34:36;5.00;;;3.30;;
4206;SDS011;2117;47.972;7.830;2023-02-28T00:37:06;5.67;;;2.50;;
4206;SDS011;2117;47.972;7.830;2023-02-28T00:39:33;6.13;;;2.70;;
4206;SDS011;2117;47.972;7.830;2023-02-28T00:42:01;5.27;;;3.10;;
4206;SDS011;2117;47.972;7.830;2023-02-28T00:44:27;4.03;;;2.73;;
4206;SDS011;2117;47.972;7.830;2023-02-28T00:46:53;3.73;;;3.00;;
4206;SDS011;2117;47.972;7.830;2023-02-28T00:49:19;6.63;;;2.80;;
4206;SDS011;2117;47.972;7.830;2023-02-28T00:51:45;5.80;;;3.20;;
4206;SDS011;2117;47.972;7.830;2023-02-28T00:54:11;5.30;;;3.10;;
4206;SDS011;2117;47.972;7.830;2023-02-28T00:56:36;5.40;;;3.23;;
4206;SDS011;2117;47.972;7.830;2023-02-28T00:59:02;4.63;;;3.03;;
4206;SDS011;2117;47.972;7.830;2023-02-28T01:01:28;6.57;;;3.20;;
4206;SDS011;2117;47.972;7.830;2023-02-28T01:03:53;5.00;;;3.03;;
4206;SDS011;2117;47.972;7.830;2023-02-28T01:06:19;4.97;;;3.23;;
4206;SDS011;2117;47.972;7.830;2023-02-28T01:08:44;4.67;;;3.20;;
4206;SDS011;2117;47.972;7.830;2023-02-28T01:11:11;4.07;;;3.13;;
4206;SDS011;2117;47.972;7.830;2023-02-28T01:13:37;6.47;;;3.27;;
4206;SDS011;2117;47.972;7.830;2023-02-28T01:16:03;3.80;;;2.73;;
4206;SDS011;2117;47.972;7.830;2023-02-28T01:18:29;6.90;;;3.43;;
4206;SDS011;2117;47.972;7.830;2023-02-28T01:20:55;6.10;;;3.73;;
4206;SDS011;2117;47.972;7.830;2023-02-28T01:23:21;4.83;;;3.20;;
4206;SDS011;2117;47.972;7.830;2023-02-28T01:25:48;7.20;;;3.40;;
4206;SDS011;2117;47.972;7.830;2023-02-28T01:28:17;5.00;;;3.63;;
4206;SDS011;2117;47.972;7.830;2023-02-28T01:30:46;6.13;;;3.00;;
4206;SDS011;2117;47.972;7.830;2023-02-28T01:33:13;5.00;;;3.17;;
4206;SDS011;2117;47.972;7.830;2023-02-28T01:35:38;6.57;;;3.73;;
4206;SDS011;2117;47.972;7.830;2023-02-28T01:38:04;5.53;;;3.40;;
4206;SDS011;2117;47.972;7.830;2023-02-28T01:40:30;7.50;;;3.80;;
4206;SDS011;2117;47.972;7.830;2023-02-28T01:42:55;5.20;;;3.40;;
4206;SDS011;2117;47.972;7.830;2023-02-28T01:45:28;4.70;;;3.20;;
4206;SDS011;2117;47.972;7.830;2023-02-28T01:48:00;5.33;;;3.97;;
4206;SDS011;2117;47.972;7.830;2023-02-28T01:50:31;4.53;;;2.73;;
4206;SDS011;2117;47.972;7.830;2023-02-28T01:53:01;5.00;;;3.57;;
4206;SDS011;2117;47.972;7.830;2023-02-28T01:55:29;4.80;;;3.63;;
4206;SDS011;2117;47.972;7.830;2023-02-28T01:57:57;6.30;;;4.20;;
4206;SDS011;2117;47.972;7.830;2023-02-28T02:00:26;7.33;;;3.50;;
4206;SDS011;2117;47.972;7.830;2023-02-28T02:02:54;5.70;;;3.10;;
4206;SDS011;2117;47.972;7.830;2023-02-28T02:05:23;4.07;;;3.40;;
4206;SDS011;2117;47.972;7.830;2023-02-28T02:07:52;4.00;;;2.90;;
4206;SDS011;2117;47.972;7.830;2023-02-28T02:10:21;4.60;;;3.83;;
4206;SDS011;2117;47.972;7.830;2023-02-28T02:13:04;4.67;;;3.80;;
4206;SDS011;2117;47.972;7.830;2023-02-28T02:36:30;6.37;;;3.67;;
4206;SDS011;2117;47.972;7.830;2023-02-28T02:41:39;5.13;;;3.43;;
4206;SDS011;2117;47.972;7.830;2023-02-28T02:44:26;4.30;;;3.30;;
4206;SDS011;2117;47.972;7.830;2023-02-28T02:47:06;16.40;;;3.90;;
4206;SDS011;2117;47.972;7.830;2023-02-28T02:49:36;10.77;;;3.70;;
4206;SDS011;2117;47.972;7.830;2023-02-28T02:52:05;4.20;;;3.50;;
4206;SDS011;2117;47.972;7.830;2023-02-28T02:54:35;3.67;;;3.27;;
4206;SDS011;2117;47.972;7.830;2023-02-28T02:57:04;4.63;;;3.10;;
4206;SDS011;2117;47.972;7.830;2023-02-28T02:59:42;4.50;;;3.50;;
4206;SDS011;2117;47.972;7.830;2023-02-28T03:02:09;6.90;;;3.50;;
4206;SDS011;2117;47.972;7.830;2023-02-28T03:04:39;6.03;;;3.80;;
4206;SDS011;2117;47.972;7.830;2023-02-28T03:07:10;6.33;;;3.17;;
4206;SDS011;2117;47.972;7.830;2023-02-28T03:09:35;6.73;;;3.00;;
4206;SDS011;2117;47.972;7.830;2023-02-28T03:12:01;6.90;;;4.27;;
4206;SDS011;2117;47.972;7.830;2023-02-28T03:14:41;4.93;;;3.60;;
4206;SDS011;2117;47.972;7.830;2023-02-28T03:20:01;4.90;;;3.00;;
4206;SDS011;2117;47.972;7.830;2023-02-28T03:22:46;4.80;;;3.23;;
4206;SDS011;2117;47.972;7.830;2023-02-28T03:25:20;5.70;;;3.30;;
4206;SDS011;2117;47.972;7.830;2023-02-28T03:28:00;3.93;;;2.80;;
4206;SDS011;2117;47.972;7.830;2023-02-28T03:35:49;4.77;;;2.93;;
4206;SDS011;2117;47.972;7.830;2023-02-28T03:38:21;6.37;;;3.53;;
4206;SDS011;2117;47.972;7.830;2023-02-28T03:40:55;4.10;;;3.13;;
4206;SDS011;2117;47.972;7.830;2023-02-28T03:43:31;6.23;;;3.43;;
4206;SDS011;2117;47.972;7.830;2023-02-28T03:45:59;6.30;;;3.97;;
4206;SDS011;2117;47.972;7.830;2023-02-28T03:48:38;4.80;;;3.50;;
4206;SDS011;2117;47.972;7.830;2023-02-28T03:51:11;5.60;;;3.13;;
4206;SDS011;2117;47.972;7.830;2023-02-28T03:53:42;7.13;;;3.60;;
4206;SDS011;2117;47.972;7.830;2023-02-28T03:56:27;4.13;;;2.80;;
4206;SDS011;2117;47.972;7.830;2023-02-28T03:59:04;4.80;;;3.60;;
4206;SDS011;2117;47.972;7.830;2023-02-28T04:01:42;5.23;;;3.80;;
4206;SDS011;2117;47.972;7.830;2023-02-28T04:04:10;5.10;;;3.53;;
4206;SDS011;2117;47.972;7.830;2023-02-28T04:06:37;6.90;;;3.83;;
4206;SDS011;2117;47.972;7.830;2023-02-28T04:09:04;5.27;;;3.43;;
4206;SDS011;2117;47.972;7.830;2023-02-28T04:14:10;6.63;;;3.40;;
4206;SDS011;2117;47.972;7.830;2023-02-28T04:16:38;4.87;;;3.47;;
4206;SDS011;2117;47.972;7.830;2023-02-28T04:19:06;5.20;;;3.40;;
4206;SDS011;2117;47.972;7.830;2023-02-28T04:21:33;5.83;;;3.93;;
4206;SDS011;2117;47.972;7.830;2023-02-28T04:24:00;3.80;;;2.87;;
4206;SDS011;2117;47.972;7.830;2023-02-28T04:26:28;6.27;;;4.30;;
4206;SDS011;2117;47.972;7.830;2023-02-28T04:28:57;6.17;;;4.00;;
4206;SDS011;2117;47.972;7.830;2023-02-28T04:31:23;4.93;;;3.13;;
4206;SDS011;2117;47.972;7.830;2023-02-28T04:33:49;8.50;;;4.23;;
4206;SDS011;2117;47.972;7.830;2023-02-28T04:36:15;4.77;;;3.63;;
4206;SDS011;2117;47.972;7.830;2023-02-28T04:38:42;4.40;;;3.67;;
4206;SDS011;2117;47.972;7.830;2023-02-28T04:41:08;5.13;;;3.93;;
4206;SDS011;2117;47.972;7.830;2023-02-28T04:43:34;5.90;;;3.73;;
4206;SDS011;2117;47.972;7.830;2023-02-28T04:46:01;5.77;;;4.10;;
4206;SDS011;2117;47.972;7.830;2023-02-28T04:48:28;4.73;;;3.50;;
4206;SDS011;2117;47.972;7.830;2023-02-28T04:50:59;8.43;;;4.87;;
4206;SDS011;2117;47.972;7.830;2023-02-28T04:53:29;6.47;;;4.43;;
4206;SDS011;2117;47.972;7.830;2023-02-28T04:55:55;8.27;;;3.70;;
4206;SDS011;2117;47.972;7.830;2023-02-28T04:58:21;7.03;;;3.97;;
4206;SDS011;2117;47.972;7.830;2023-02-28T05:00:50;5.80;;;3.77;;
4206;SDS011;2117;47.972;7.830;2023-02-28T05:03:16;4.97;;;3.53;;
4206;SDS011;2117;47.972;7.830;2023-02-28T05:05:42;5.10;;;4.00;;
4206;SDS011;2117;47.972;7.830;2023-02-28T05:08:07;6.53;;;4.20;;
4206;SDS011;2117;47.972;7.830;2023-02-28T05:10:34;4.93;;;3.80;;
4206;SDS011;2117;47.972;7.830;2023-02-28T05:13:00;7.37;;;4.70;;
4206;SDS011;2117;47.972;7.830;2023-02-28T05:15:26;6.40;;;3.30;;
4206;SDS011;2117;47.972;7.830;2023-02-28T05:17:51;5.00;;;3.53;;
4206;SDS011;2117;47.972;7.830;2023-02-28T05:20:17;5.30;;;3.90;;
4206;SDS011;2117;47.972;7.830;2023-02-28T05:22:42;5.87;;;4.70;;
4206;SDS011;2117;47.972;7.830;2023-02-28T05:25:10;6.87;;;4.07;;
4206;SDS011;2117;47.972;7.830;2023-02-28T05:27:39;5.90;;;4.03;;
4206;SDS011;2117;47.972;7.830;2023-02-28T05:30:06;7.17;;;4.70;;
4206;SDS011;2117;47.972;7.830;2023-02-28T05:32:32;5.67;;;4.13;;
4206;SDS011;2117;47.972;7.830;2023-02-28T05:34:58;11.87;;;4.77;;
4206;SDS011;2117;47.972;7.830;2023-02-28T05:37:23;7.37;;;3.60;;
4206;SDS011;2117;47.972;7.830;2023-02-28T05:39:49;5.93;;;4.37;;
4206;SDS011;2117;47.972;7.830;2023-02-28T05:42:14;6.20;;;5.60;;
4206;SDS011;2117;47.972;7.830;2023-02-28T05:44:40;10.43;;;4.30;;
4206;SDS011;2117;47.972;7.830;2023-02-28T05:47:06;6.13;;;4.30;;
4206;SDS011;2117;47.972;7.830;2023-02-28T05:49:32;7.53;;;5.23;;
4206;SDS011;2117;47.972;7.830;2023-02-28T05:51:58;6.30;;;5.17;;
4206;SDS011;2117;47.972;7.830;2023-02-28T05:54:23;7.50;;;5.10;;
4206;SDS011;2117;47.972;7.830;2023-02-28T05:56:49;8.80;;;5.33;;
4206;SDS011;2117;47.972;7.830;2023-02-28T05:59:14;5.47;;;4.87;;
4206;SDS011;2117;47.972;7.830;2023-02-28T06:01:44;9.77;;;4.87;;
4206;SDS011;2117;47.972;7.830;2023-02-28T06:04:13;9.80;;;5.83;;
4206;SDS011;2117;47.972;7.830;2023-02-28T06:06:46;6.83;;;5.17;;
4206;SDS011;2117;47.972;7.830;2023-02-28T06:09:15;9.07;;;5.67;;
4206;SDS011;2117;47.972;7.830;2023-02-28T06:11:41;7.03;;;4.63;;
4206;SDS011;2117;47.972;7.830;2023-02-28T06:14:07;6.67;;;4.30;;
4206;SDS011;2117;47.972;7.830;2023-02-28T06:16:37;9.63;;;5.50;;
4206;SDS011;2117;47.972;7.830;2023-02-28T06:19:03;9.30;;;4.93;;
4206;SDS011;2117;47.972;7.830;2023-02-28T06:21:29;7.07;;;5.10;;
4206;SDS011;2117;47.972;7.830;2023-02-28T06:23:57;6.50;;;5.00;;
4206;SDS011;2117;47.972;7.830;2023-02-28T06:26:23;7.50;;;5.27;;
4206;SDS011;2117;47.972;7.830;2023-02-28T06:28:50;8.93;;;5.40;;
4206;SDS011;2117;47.972;7.830;2023-02-28T06:31:16;9.27;;;5.70;;
4206;SDS011;2117;47.972;7.830;2023-02-28T06:33:43;16.07;;;5.00;;
4206;SDS011;2117;47.972;7.830;2023-02-28T06:36:11;9.07;;;5.43;;
4206;SDS011;2117;47.972;7.830;2023-02-28T06:38:37;6.60;;;4.63;;
4206;SDS011;2117;47.972;7.830;2023-02-28T06:41:04;8.07;;;5.27;;
4206;SDS011;2117;47.972;7.830;2023-02-28T06:43:31;10.03;;;5.80;;
4206;SDS011;2117;47.972;7.830;2023-02-28T06:45:59;7.53;;;5.13;;
4206;SDS011;2117;47.972;7.830;2023-02-28T06:48:27;8.30;;;5.70;;
4206;SDS011;2117;47.972;7.830;2023-02-28T06:51:06;8.90;;;5.63;;
4206;SDS011;2117;47.972;7.830;2023-02-28T06:53:33;5.70;;;4.70;;
4206;SDS011;2117;47.972;7.830;2023-02-28T06:55:59;8.30;;;5.53;;
4206;SDS011;2117;47.972;7.830;2023-02-28T06:58:30;8.37;;;5.43;;
4206;SDS011;2117;47.972;7.830;2023-02-28T07:00:56;7.37;;;5.83;;
4206;SDS011;2117;47.972;7.830;2023-02-28T07:03:21;6.90;;;4.50;;
4206;SDS011;2117;47.972;7.830;2023-02-28T07:05:48;7.23;;;5.87;;
4206;SDS011;2117;47.972;7.830;2023-02-28T07:08:13;5.87;;;4.90;;
4206;SDS011;2117;47.972;7.830;2023-02-28T07:10:39;7.93;;;4.87;;
4206;SDS011;2117;47.972;7.830;2023-02-28T07:13:06;7.73;;;4.60;;
4206;SDS011;2117;47.972;7.830;2023-02-28T07:15:33;8.30;;;4.80;;
4206;SDS011;2117;47.972;7.830;2023-02-28T07:17:59;10.20;;;4.63;;
4206;SDS011;2117;47.972;7.830;2023-02-28T07:20:25;7.87;;;5.70;;
4206;SDS011;2117;47.972;7.830;2023-02-28T07:22:51;6.70;;;5.03;;
4206;SDS011;2117;47.972;7.830;2023-02-28T07:25:23;9.00;;;5.70;;
4206;SDS011;2117;47.972;7.830;2023-02-28T07:27:50;8.40;;;5.90;;
4206;SDS011;2117;47.972;7.830;2023-02-28T07:30:16;7.43;;;5.40;;
4206;SDS011;2117;47.972;7.830;2023-02-28T07:32:42;7.63;;;5.30;;
4206;SDS011;2117;47.972;7.830;2023-02-28T07:35:08;8.80;;;5.87;;
4206;SDS011;2117;47.972;7.830;2023-02-28T07:37:34;8.50;;;4.93;;
4206;SDS011;2117;47.972;7.830;2023-02-28T07:40:03;9.60;;;5.63;;
4206;SDS011;2117;47.972;7.830;2023-02-28T07:42:33;9.03;;;5.03;;
4206;SDS011;2117;47.972;7.830;2023-02-28T07:44:59;11.33;;;6.57;;
4206;SDS011;2117;47.972;7.830;2023-02-28T07:47:25;9.57;;;6.80;;
4206;SDS011;2117;47.972;7.830;2023-02-28T07:49:51;7.97;;;5.43;;
4206;SDS011;2117;47.972;7.830;2023-02-28T07:52:17;7.70;;;5.47;;
4206;SDS011;2117;47.972;7.830;2023-02-28T07:54:43;7.40;;;5.73;;
4206;SDS011;2117;47.972;7.830;2023-02-28T07:57:08;8.90;;;6.33;;
4206;SDS011;2117;47.972;7.830;2023-02-28T07:59:34;8.07;;;5.53;;
4206;SDS011;2117;47.972;7.830;2023-02-28T08:01:59;8.53;;;5.83;;
4206;SDS011;2117;47.972;7.830;2023-02-28T08:04:25;7.47;;;5.20;;
4206;SDS011;2117;47.972;7.830;2023-02-28T08:06:51;9.63;;;5.80;;
4206;SDS011;2117;47.972;7.830;2023-02-28T08:09:18;12.17;;;6.10;;
4206;SDS011;2117;47.972;7.830;2023-02-28T08:11:44;6.33;;;5.23;;
4206;SDS011;2117;47.972;7.830;2023-02-28T08:14:09;9.23;;;5.50;;
4206;SDS011;2117;47.972;7.830;2023-02-28T08:16:35;10.27;;;5.97;;
4206;SDS011;2117;47.972;7.830;2023-02-28T08:19:01;8.07;;;4.47;;
4206;SDS011;2117;47.972;7.830;2023-02-28T08:21:26;9.97;;;5.23;;
4206;SDS011;2117;47.972;7.830;2023-02-28T08:23:52;7.87;;;5.47;;
4206;SDS011;2117;47.972;7.830;2023-02-28T08:26:18;9.00;;;5.53;;
4206;SDS011;2117;47.972;7.830;2023-02-28T08:28:44;9.70;;;6.37;;
4206;SDS011;2117;47.972;7.830;2023-02-28T08:31:11;8.00;;;6.47;;
4206;SDS011;2117;47.972;7.830;2023-02-28T08:33:39;15.27;;;6.73;;
4206;SDS011;2117;47.972;7.830;2023-02-28T08:36:07;8.70;;;5.50;;
4206;SDS011;2117;47.972;7.830;2023-02-28T08:38:33;6.47;;;4.73;;
4206;SDS011;2117;47.972;7.830;2023-02-28T08:41:01;8.27;;;5.13;;
4206;SDS011;2117;47.972;7.830;2023-02-28T08:43:32;9.13;;;6.10;;
4206;SDS011;2117;47.972;7.830;2023-02-28T08:45:58;11.23;;;6.10;;
4206;SDS011;2117;47.972;7.830;2023-02-28T08:48:25;9.57;;;6.30;;
4206;SDS011;2117;47.972;7.830;2023-02-28T08:50:58;9.43;;;6.40;;
4206;SDS011;2117;47.972;7.830;2023-02-28T08:53:26;7.47;;;4.93;;
4206;SDS011;2117;47.972;7.830;2023-02-28T08:56:11;15.63;;;6.17;;
4206;SDS011;2117;47.972;7.830;2023-02-28T08:58:38;17.37;;;7.33;;
4206;SDS011;2117;47.972;7.830;2023-02-28T09:01:14;12.00;;;6.20;;
4206;SDS011;2117;47.972;7.830;2023-02-28T09:03:42;10.90;;;5.33;;
4206;SDS011;2117;47.972;7.830;2023-02-28T09:06:09;12.20;;;7.20;;
4206;SDS011;2117;47.972;7.830;2023-02-28T09:08:35;7.87;;;5.57;;
4206;SDS011;2117;47.972;7.830;2023-02-28T09:11:00;10.33;;;6.23;;
4206;SDS011;2117;47.972;7.830;2023-02-28T09:13:27;10.17;;;7.10;;
4206;SDS011;2117;47.972;7.830;2023-02-28T09:15:53;9.90;;;6.50;;
4206;SDS011;2117;47.972;7.830;2023-02-28T09:18:19;9.50;;;5.70;;
4206;SDS011;2117;47.972;7.830;2023-02-28T09:20:45;9.60;;;5.70;;
4206;SDS011;2117;47.972;7.830;2023-02-28T09:23:11;9.93;;;7.03;;
4206;SDS011;2117;47.972;7.830;2023-02-28T09:25:40;12.60;;;7.30;;
4206;SDS011;2117;47.972;7.830;2023-02-28T09:28:14;8.17;;;5.23;;
4206;SDS011;2117;47.972;7.830;2023-02-28T09:30:41;7.50;;;5.47;;
4206;SDS011;2117;47.972;7.830;2023-02-28T09:33:09;11.90;;;6.80;;
4206;SDS011;2117;47.972;7.830;2023-02-28T09:35:35;11.30;;;6.17;;
4206;SDS011;2117;47.972;7.830;2023-02-28T09:38:02;9.70;;;5.90;;
4206;SDS011;2117;47.972;7.830;2023-02-28T09:40:28;14.20;;;6.47;;
4206;SDS011;2117;47.972;7.830;2023-02-28T09:42:55;10.87;;;6.23;;
4206;SDS011;2117;47.972;7.830;2023-02-28T09:47:58;14.03;;;6.60;;
4206;SDS011;2117;47.972;7.830;2023-02-28T09:53:11;11.30;;;5.80;;
4206;SDS011;2117;47.972;7.830;2023-02-28T09:55:51;10.80;;;7.13;;
4206;SDS011;2117;47.972;7.830;2023-02-28T10:01:03;8.80;;;5.47;;
4206;SDS011;2117;47.972;7.830;2023-02-28T10:03:42;10.97;;;6.07;;
4206;SDS011;2117;47.972;7.830;2023-02-28T10:06:22;13.10;;;7.73;;
4206;SDS011;2117;47.972;7.830;2023-02-28T10:11:26;7.83;;;5.90;;
4206;SDS011;2117;47.972;7.830;2023-02-28T10:21:55;9.97;;;6.20;;
4206;SDS011;2117;47.972;7.830;2023-02-28T10:24:42;9.63;;;6.47;;
4206;SDS011;2117;47.972;7.830;2023-02-28T10:29:38;7.67;;;5.57;;
4206;SDS011;2117;47.972;7.830;2023-02-28T10:32:08;9.20;;;5.97;;
4206;SDS011;2117;47.972;7.830;2023-02-28T10:34:39;9.53;;;6.20;;
4206;SDS011;2117;47.972;7.830;2023-02-28T10:37:04;8.43;;;6.37;;
4206;SDS011;2117;47.972;7.830;2023-02-28T10:39:40;8.07;;;6.00;;
4206;SDS011;2117;47.972;7.830;2023-02-28T10:42:44;8.73;;;6.07;;
4206;SDS011;2117;47.972;7.830;2023-02-28T10:45:14;9.10;;;5.80;;
4206;SDS011;2117;47.972;7.830;2023-02-28T10:55:35;9.10;;;6.77;;
4206;SDS011;2117;47.972;7.830;2023-02-28T10:58:01;8.57;;;5.70;;
4206;SDS011;2117;47.972;7.830;2023-02-28T11:00:31;8.87;;;5.30;;
4206;SDS011;2117;47.972;7.830;2023-02-28T11:02:58;9.50;;;6.60;;
4206;SDS011;2117;47.972;7.830;2023-02-28T11:07:52;10.60;;;6.33;;
4206;SDS011;2117;47.972;7.830;2023-02-28T11:10:25;9.83;;;6.17;;
4206;SDS011;2117;47.972;7.830;2023-02-28T11:12:55;8.07;;;5.77;;
4206;SDS011;2117;47.972;7.830;2023-02-28T11:15:26;8.97;;;6.07;;
4206;SDS011;2117;47.972;7.830;2023-02-28T11:17:57;9.67;;;6.87;;
4206;SDS011;2117;47.972;7.830;2023-02-28T11:20:25;9.20;;;6.50;;
4206;SDS011;2117;47.972;7.830;2023-02-28T11:22:56;10.40;;;7.00;;
4206;SDS011;2117;47.972;7.830;2023-02-28T11:25:27;9.63;;;6.97;;
4206;SDS011;2117;47.972;7.830;2023-02-28T11:27:56;10.40;;;7.33;;
4206;SDS011;2117;47.972;7.830;2023-02-28T11:30:27;6.70;;;6.03;;
4206;SDS011;2117;47.972;7.830;2023-02-28T11:32:54;11.63;;;6.80;;
4206;SDS011;2117;47.972;7.830;2023-02-28T11:35:38;9.27;;;6.00;;
4206;SDS011;2117;47.972;7.830;2023-02-28T11:38:08;8.50;;;6.60;;
4206;SDS011;2117;47.972;7.830;2023-02-28T11:43:08;15.67;;;8.37;;
4206;SDS011;2117;47.972;7.830;2023-02-28T11:45:44;9.43;;;7.00;;
4206;SDS011;2117;47.972;7.830;2023-02-28T11:48:34;9.80;;;5.63;;
4206;SDS011;2117;47.972;7.830;2023-02-28T11:51:15;10.10;;;6.77;;
4206;SDS011;2117;47.972;7.830;2023-02-28T11:56:57;9.30;;;6.00;;
4206;SDS011;2117;47.972;7.830;2023-02-28T11:59:35;12.07;;;8.33;;
4206;SDS011;2117;47.972;7.830;2023-02-28T12:02:19;9.27;;;6.93;;
4206;SDS011;2117;47.972;7.830;2023-02-28T12:05:25;10.30;;;7.43;;
4206;SDS011;2117;47.972;7.830;2023-02-28T12:08:06;8.40;;;6.73;;
4206;SDS011;2117;47.972;7.830;2023-02-28T12:10:44;12.50;;;8.10;;
4206;SDS011;2117;47.972;7.830;2023-02-28T12:16:25;10.10;;;7.60;;
4206;SDS011;2117;47.972;7.830;2023-02-28T12:19:24;10.83;;;7.33;;
4206;SDS011;2117;47.972;7.830;2023-02-28T12:27:33;8.77;;;6.80;;
4206;SDS011;2117;47.972;7.830;2023-02-28T12:32:47;12.60;;;8.00;;
4206;SDS011;2117;47.972;7.830;2023-02-28T12:35:32;10.80;;;7.43;;
4206;SDS011;2117;47.972;7.830;2023-02-28T12:43:35;11.00;;;7.50;;
4206;SDS011;2117;47.972;7.830;2023-02-28T12:48:39;9.70;;;6.50;;
4206;SDS011;2117;47.972;7.830;2023-02-28T12:51:11;9.47;;;6.80;;
4206;SDS011;2117;47.972;7.830;2023-02-28T12:56:20;10.20;;;6.97;;
4206;SDS011;2117;47.972;7.830;2023-02-28T12:58:58;12.40;;;7.47;;
4206;SDS011;2117;47.972;7.830;2023-02-28T13:10:11;11.00;;;7.10;;
4206;SDS011;2117;47.972;7.830;2023-02-28T13:12:47;11.63;;;6.80;;
4206;SDS011;2117;47.972;7.830;2023-02-28T13:15:27;8.97;;;6.90;;
4206;SDS011;2117;47.972;7.830;2023-02-28T13:17:58;9.20;;;7.00;;
4206;SDS011;2117;47.972;7.830;2023-02-28T13:20:36;8.23;;;7.13;;
4206;SDS011;2117;47.972;7.830;2023-02-28T13:26:20;9.93;;;7.10;;
4206;SDS011;2117;47.972;7.830;2023-02-28T13:28:56;11.87;;;7.00;;
4206;SDS011;2117;47.972;7.830;2023-02-28T13:31:24;12.80;;;7.70;;
4206;SDS011;2117;47.972;7.830;2023-02-28T13:54:36;11.10;;;8.30;;
4206;SDS011;2117;47.972;7.830;2023-02-28T13:57:40;12.20;;;8.97;;
4206;SDS011;2117;47.972;7.830;2023-02-28T14:06:15;11.53;;;7.33;;
4206;SDS011;2117;47.972;7.830;2023-02-28T14:11:44;13.70;;;7.80;;
4206;SDS011;2117;47.972;7.830;2023-02-28T14:14:52;11.77;;;8.23;;
4206;SDS011;2117;47.972;7.830;2023-02-28T14:16:59;13.13;;;8.20;;
4206;SDS011;2117;47.972;7.830;2023-02-28T14:19:26;13.40;;;7.97;;
4206;SDS011;2117;47.972;7.830;2023-02-28T14:37:33;10.97;;;7.60;;
4206;SDS011;2117;47.972;7.830;2023-02-28T14:40:02;11.93;;;8.37;;
4206;SDS011;2117;47.972;7.830;2023-02-28T14:42:30;11.83;;;8.57;;
4206;SDS011;2117;47.972;7.830;2023-02-28T14:45:01;13.50;;;7.90;;
4206;SDS011;2117;47.972;7.830;2023-02-28T14:47:28;10.47;;;7.23;;
4206;SDS011;2117;47.972;7.830;2023-02-28T14:49:58;11.60;;;8.07;;
4206;SDS011;2117;47.972;7.830;2023-02-28T14:52:28;11.40;;;8.20;;
4206;SDS011;2117;47.972;7.830;2023-02-28T14:55:04;13.53;;;8.80;;
4206;SDS011;2117;47.972;7.830;2023-02-28T14:57:34;11.47;;;8.60;;
4206;SDS011;2117;47.972;7.830;2023-02-28T15:00:09;10.20;;;7.50;;
4206;SDS011;2117;47.972;7.830;2023-02-28T15:02:40;11.57;;;7.70;;
4206;SDS011;2117;47.972;7.830;2023-02-28T15:07:44;11.27;;;7.87;;
4206;SDS011;2117;47.972;7.830;2023-02-28T15:15:18;11.63;;;8.40;;
4206;SDS011;2117;47.972;7.830;2023-02-28T15:17:47;11.50;;;9.53;;
4206;SDS011;2117;47.972;7.830;2023-02-28T15:20:21;12.17;;;8.73;;
4206;SDS011;2117;47.972;7.830;2023-02-28T15:22:48;12.90;;;9.97;;
4206;SDS011;2117;47.972;7.830;2023-02-28T15:25:18;13.10;;;8.90;;
4206;SDS011;2117;47.972;7.830;2023-02-28T15:27:46;15.10;;;9.43;;
4206;SDS011;2117;47.972;7.830;2023-02-28T15:30:19;12.70;;;8.67;;
4206;SDS011;2117;47.972;7.830;2023-02-28T15:35:30;13.03;;;8.63;;
4206;SDS011;2117;47.972;7.830;2023-02-28T15:40:41;15.30;;;9.00;;
4206;SDS011;2117;47.972;7.830;2023-02-28T15:43:39;25.30;;;15.70;;
4206;SDS011;2117;47.972;7.830;2023-02-28T15:46:06;19.43;;;12.87;;
4206;SDS011;2117;47.972;7.830;2023-02-28T15:48:58;17.43;;;11.40;;
4206;SDS011;2117;47.972;7.830;2023-02-28T15:51:24;17.50;;;11.10;;
4206;SDS011;2117;47.972;7.830;2023-02-28T15:54:05;11.73;;;8.63;;
4206;SDS011;2117;47.972;7.830;2023-02-28T15:56:38;15.57;;;10.50;;
4206;SDS011;2117;47.972;7.830;2023-02-28T15:59:13;15.40;;;9.80;;
4206;SDS011;2117;47.972;7.830;2023-02-28T16:01:42;14.50;;;9.23;;
4206;SDS011;2117;47.972;7.830;2023-02-28T16:04:19;17.47;;;10.00;;
4206;SDS011;2117;47.972;7.830;2023-02-28T16:09:15;13.07;;;9.47;;
4206;SDS011;2117;47.972;7.830;2023-02-28T16:11:43;16.20;;;11.70;;
4206;SDS011;2117;47.972;7.830;2023-02-28T16:14:15;15.60;;;12.17;;
4206;SDS011;2117;47.972;7.830;2023-02-28T16:16:50;12.60;;;9.63;;
4206;SDS011;2117;47.972;7.830;2023-02-28T16:19:20;13.53;;;9.30;;
4206;SDS011;2117;47.972;7.830;2023-02-28T16:21:46;17.17;;;10.47;;
4206;SDS011;2117;47.972;7.830;2023-02-28T16:24:12;15.03;;;9.70;;
4206;SDS011;2117;47.972;7.830;2023-02-28T16:26:40;14.57;;;10.73;;
4206;SDS011;2117;47.972;7.830;2023-02-28T16:29:06;13.03;;;9.00;;
4206;SDS011;2117;47.972;7.830;2023-02-28T16:31:35;13.23;;;8.07;;
4206;SDS011;2117;47.972;7.830;2023-02-28T16:34:02;14.40;;;10.63;;
4206;SDS011;2117;47.972;7.830;2023-02-28T16:36:28;13.37;;;9.27;;
4206;SDS011;2117;47.972;7.830;2023-02-28T16:38:54;13.80;;;9.43;;
4206;SDS011;2117;47.972;7.830;2023-02-28T16:41:22;13.23;;;9.30;;
4206;SDS011;2117;47.972;7.830;2023-02-28T16:43:51;12.50;;;9.40;;
4206;SDS011;2117;47.972;7.830;2023-02-28T16:46:19;12.33;;;8.73;;
4206;SDS011;2117;47.972;7.830;2023-02-28T16:48:46;15.00;;;9.80;;
4206;SDS011;2117;47.972;7.830;2023-02-28T16:51:16;13.40;;;10.00;;
4206;SDS011;2117;47.972;7.830;2023-02-28T16:53:42;17.67;;;10.93;;
4206;SDS011;2117;47.972;7.830;2023-02-28T16:56:16;16.27;;;9.57;;
4206;SDS011;2117;47.972;7.830;2023-02-28T16:58:44;13.00;;;9.47;;
4206;SDS011;2117;47.972;7.830;2023-02-28T17:01:10;15.43;;;9.83;;
4206;SDS011;2117;47.972;7.830;2023-02-28T17:03:36;12.37;;;8.77;;
4206;SDS011;2117;47.972;7.830;2023-02-28T17:06:03;12.67;;;9.37;;
4206;SDS011;2117;47.972;7.830;2023-02-28T17:08:30;15.37;;;9.90;;
4206;SDS011;2117;47.972;7.830;2023-02-28T17:10:57;18.87;;;10.53;;
4206;SDS011;2117;47.972;7.830;2023-02-28T17:13:23;13.70;;;8.93;;
4206;SDS011;2117;47.972;7.830;2023-02-28T17:15:49;16.60;;;10.20;;
4206;SDS011;2117;47.972;7.830;2023-02-28T17:18:17;15.77;;;10.33;;
4206;SDS011;2117;47.972;7.830;2023-02-28T17:20:44;14.43;;;10.17;;
4206;SDS011;2117;47.972;7.830;2023-02-28T17:23:11;16.17;;;11.27;;
4206;SDS011;2117;47.972;7.830;2023-02-28T17:25:37;13.87;;;10.10;;
4206;SDS011;2117;47.972;7.830;2023-02-28T17:28:03;17.97;;;9.80;;
4206;SDS011;2117;47.972;7.830;2023-02-28T17:30:28;12.60;;;9.03;;
4206;SDS011;2117;47.972;7.830;2023-02-28T17:32:58;12.90;;;9.83;;
4206;SDS011;2117;47.972;7.830;2023-02-28T17:35:24;13.60;;;9.80;;
4206;SDS011;2117;47.972;7.830;2023-02-28T17:37:51;16.23;;;9.90;;
4206;SDS011;2117;47.972;7.830;2023-02-28T17:40:21;19.37;;;10.63;;
4206;SDS011;2117;47.972;7.830;2023-02-28T17:42:47;15.90;;;10.37;;
4206;SDS011;2117;47.972;7.830;2023-02-28T17:45:14;17.90;;;12.20;;
4206;SDS011;2117;47.972;7.830;2023-02-28T17:47:40;20.27;;;12.13;;
4206;SDS011;2117;47.972;7.830;2023-02-28T17:50:12;18.07;;;11.53;;
4206;SDS011;2117;47.972;7.830;2023-02-28T17:52:40;17.60;;;11.50;;
4206;SDS011;2117;47.972;7.830;2023-02-28T17:55:06;19.20;;;12.30;;
4206;SDS011;2117;47.972;7.830;2023-02-28T17:57:32;17.77;;;12.33;;
4206;SDS011;2117;47.972;7.830;2023-02-28T17:59:57;20.47;;;13.43;;
4206;SDS011;2117;47.972;7.830;2023-02-28T18:02:23;27.87;;;15.63;;
4206;SDS011;2117;47.972;7.830;2023-02-28T18:04:48;35.93;;;18.40;;
4206;SDS011;2117;47.972;7.830;2023-02-28T18:07:14;27.80;;;14.53;;
4206;SDS011;2117;47.972;7.830;2023-02-28T18:09:39;24.30;;;13.57;;